sensor_id;sensor_type;location;lat;lon;timestamp;pressure;altitude;pressure_sealevel;temperature;humidity
56568;BME280;42456;49.956;20.004;2023-05-01T00:00:56;98843.15;;;1.77;73.82
56568;BME280;42456;49.956;20.004;2023-05-01T00:03:23;98844.92;;;1.73;74.10
56568;BME280;42456;49.956;20.004;2023-05-01T00:05:50;98847.08;;;1.70;74.36
56568;BME280;42456;49.956;20.004;2023-05-01T00:08:17;98846.91;;;1.66;74.46
56568;BME280;42456;49.956;20.004;2023-05-01T00:10:44;98847.05;;;1.62;74.10
56568;BME280;42456;49.956;20.004;2023-05-01T00:13:12;98847.87;;;1.58;74.08
56568;BME280;42456;49.956;20.004;2023-05-01T00:15:40;98846.80;;;1.55;74.76
56568;BME280;42456;49.956;20.004;2023-05-01T00:18:07;98845.02;;;1.52;74.94
56568;BME280;42456;49.956;20.004;2023-05-01T00:20:34;98844.73;;;1.49;74.72
56568;BME280;42456;49.956;20.004;2023-05-01T00:23:01;98843.94;;;1.46;74.81
56568;BME280;42456;49.956;20.004;2023-05-01T00:25:28;98843.44;;;1.44;75.32
56568;BME280;42456;49.956;20.004;2023-05-01T00:27:56;98841.08;;;1.41;74.70
56568;BME280;42456;49.956;20.004;2023-05-01T00:30:24;98844.35;;;1.37;74.70
56568;BME280;42456;49.956;20.004;2023-05-01T00:32:51;98844.81;;;1.35;75.53
56568;BME280;42456;49.956;20.004;2023-05-01T00:35:18;98846.59;;;1.31;75.52
56568;BME280;42456;49.956;20.004;2023-05-01T00:37:45;98846.63;;;1.29;75.22
56568;BME280;42456;49.956;20.004;2023-05-01T00:40:12;98846.98;;;1.27;75.58
56568;BME280;42456;49.956;20.004;2023-05-01T00:42:39;98845.91;;;1.24;75.42
56568;BME280;42456;49.956;20.004;2023-05-01T00:45:06;98847.32;;;1.22;75.44
56568;BME280;42456;49.956;20.004;2023-05-01T00:47:37;98846.41;;;1.19;75.96
56568;BME280;42456;49.956;20.004;2023-05-01T00:50:05;98846.91;;;1.16;75.82
56568;BME280;42456;49.956;20.004;2023-05-01T00:52:32;98847.52;;;1.13;75.40
56568;BME280;42456;49.956;20.004;2023-05-01T00:54:59;98847.22;;;1.09;75.95
56568;BME280;42456;49.956;20.004;2023-05-01T00:57:26;98846.56;;;1.06;75.80
56568;BME280;42456;49.956;20.004;2023-05-01T00:59:53;98852.20;;;1.03;75.79
56568;BME280;42456;49.956;20.004;2023-05-01T01:02:20;98848.84;;;0.99;76.14
56568;BME280;42456;49.956;20.004;2023-05-01T01:04:48;98849.88;;;0.98;76.22
56568;BME280;42456;49.956;20.004;2023-05-01T01:07:32;98851.04;;;0.96;76.27
56568;BME280;42456;49.956;20.004;2023-05-01T01:13:31;98848.13;;;0.90;76.46
56568;BME280;42456;49.956;20.004;2023-05-01T01:15:49;98845.45;;;0.87;75.78
56568;BME280;42456;49.956;20.004;2023-05-01T01:18:39;98845.97;;;0.85;76.51
56568;BME280;42456;49.956;20.004;2023-05-01T01:21:15;98841.23;;;0.82;76.54
56568;BME280;42456;49.956;20.004;2023-05-01T01:34:35;98838.80;;;0.66;76.59
56568;BME280;42456;49.956;20.004;2023-05-01T01:37:16;98838.84;;;0.63;77.06
56568;BME280;42456;49.956;20.004;2023-05-01T01:39:52;98843.73;;;0.61;76.46
56568;BME280;42456;49.956;20.004;2023-05-01T01:42:25;98844.88;;;0.59;76.80
56568;BME280;42456;49.956;20.004;2023-05-01T01:44:58;98844.58;;;0.56;77.06
56568;BME280;42456;49.956;20.004;2023-05-01T01:47:30;98842.92;;;0.53;77.18
56568;BME280;42456;49.956;20.004;2023-05-01T01:50:01;98839.56;;;0.50;76.59
56568;BME280;42456;49.956;20.004;2023-05-01T01:52:30;98839.89;;;0.47;77.09
56568;BME280;42456;49.956;20.004;2023-05-01T01:55:04;98835.59;;;0.45;77.41
56568;BME280;42456;49.956;20.004;2023-05-01T01:57:33;98836.62;;;0.43;77.14
56568;BME280;42456;49.956;20.004;2023-05-01T02:00:02;98831.04;;;0.40;77.57
56568;BME280;42456;49.956;20.004;2023-05-01T02:02:35;98830.47;;;0.36;77.54
56568;BME280;42456;49.956;20.004;2023-05-01T02:05:06;98828.70;;;0.34;77.38
56568;BME280;42456;49.956;20.004;2023-05-01T02:07:35;98832.65;;;0.33;77.81
56568;BME280;42456;49.956;20.004;2023-05-01T02:10:04;98827.25;;;0.31;77.40
56568;BME280;42456;49.956;20.004;2023-05-01T02:12:32;98827.44;;;0.29;77.70
56568;BME280;42456;49.956;20.004;2023-05-01T02:14:59;98825.50;;;0.27;77.58
56568;BME280;42456;49.956;20.004;2023-05-01T02:17:28;98821.20;;;0.25;77.44
56568;BME280;42456;49.956;20.004;2023-05-01T02:19:56;98818.75;;;0.23;77.67
56568;BME280;42456;49.956;20.004;2023-05-01T02:22:24;98820.48;;;0.21;77.62
56568;BME280;42456;49.956;20.004;2023-05-01T02:24:53;98821.50;;;0.18;77.63
56568;BME280;42456;49.956;20.004;2023-05-01T02:27:23;98818.35;;;0.15;77.92
56568;BME280;42456;49.956;20.004;2023-05-01T02:29:50;98817.80;;;0.13;78.09
56568;BME280;42456;49.956;20.004;2023-05-01T02:32:19;98816.65;;;0.10;78.37
56568;BME280;42456;49.956;20.004;2023-05-01T02:34:46;98814.63;;;0.08;78.28
56568;BME280;42456;49.956;20.004;2023-05-01T02:37:13;98819.16;;;0.08;78.39
56568;BME280;42456;49.956;20.004;2023-05-01T02:39:40;98818.84;;;0.07;78.38
56568;BME280;42456;49.956;20.004;2023-05-01T02:42:07;98817.52;;;0.07;78.47
56568;BME280;42456;49.956;20.004;2023-05-01T02:44:42;98817.88;;;0.07;78.36
56568;BME280;42456;49.956;20.004;2023-05-01T02:47:17;98817.79;;;0.07;78.48
56568;BME280;42456;49.956;20.004;2023-05-01T02:49:47;98815.98;;;0.08;78.55
56568;BME280;42456;49.956;20.004;2023-05-01T02:52:18;98814.14;;;0.07;78.67
56568;BME280;42456;49.956;20.004;2023-05-01T02:54:46;98813.38;;;0.06;78.46
56568;BME280;42456;49.956;20.004;2023-05-01T02:57:16;98814.59;;;0.05;78.58
56568;BME280;42456;49.956;20.004;2023-05-01T02:59:43;98811.30;;;0.05;78.74
56568;BME280;42456;49.956;20.004;2023-05-01T03:02:10;98804.89;;;0.04;78.49
56568;BME280;42456;49.956;20.004;2023-05-01T03:04:37;98810.98;;;0.04;78.55
56568;BME280;42456;49.956;20.004;2023-05-01T03:07:04;98811.35;;;0.03;78.61
56568;BME280;42456;49.956;20.004;2023-05-01T03:09:31;98804.14;;;0.02;78.44
56568;BME280;42456;49.956;20.004;2023-05-01T03:11:57;98801.54;;;0.02;78.57
56568;BME280;42456;49.956;20.004;2023-05-01T03:14:24;98803.13;;;0.02;78.60
56568;BME280;42456;49.956;20.004;2023-05-01T03:16:54;98798.79;;;0.02;78.55
56568;BME280;42456;49.956;20.004;2023-05-01T03:19:21;98793.77;;;0.02;78.59
56568;BME280;42456;49.956;20.004;2023-05-01T03:21:48;98794.77;;;0.01;78.47
56568;BME280;42456;49.956;20.004;2023-05-01T03:24:15;98792.02;;;0.01;78.77
56568;BME280;42456;49.956;20.004;2023-05-01T03:26:42;98790.48;;;0.01;78.83
56568;BME280;42456;49.956;20.004;2023-05-01T03:29:09;98788.89;;;0.01;78.77
56568;BME280;42456;49.956;20.004;2023-05-01T03:31:38;98783.29;;;0.00;78.99
56568;BME280;42456;49.956;20.004;2023-05-01T03:34:05;98785.10;;;0.02;78.85
56568;BME280;42456;49.956;20.004;2023-05-01T03:36:32;98788.17;;;0.04;78.95
56568;BME280;42456;49.956;20.004;2023-05-01T03:39:00;98785.29;;;0.05;78.95
56568;BME280;42456;49.956;20.004;2023-05-01T03:41:26;98784.27;;;0.09;79.27
56568;BME280;42456;49.956;20.004;2023-05-01T03:43:53;98781.88;;;0.12;79.03
56568;BME280;42456;49.956;20.004;2023-05-01T03:46:20;98776.84;;;0.16;79.36
56568;BME280;42456;49.956;20.004;2023-05-01T03:49:10;98778.48;;;0.21;79.38
56568;BME280;42456;49.956;20.004;2023-05-01T03:51:38;98773.87;;;0.27;79.35
56568;BME280;42456;49.956;20.004;2023-05-01T03:54:05;98774.98;;;0.32;79.33
56568;BME280;42456;49.956;20.004;2023-05-01T03:56:31;98774.40;;;0.37;79.61
56568;BME280;42456;49.956;20.004;2023-05-01T03:59:01;98774.91;;;0.43;79.59
56568;BME280;42456;49.956;20.004;2023-05-01T04:01:28;98773.12;;;0.48;79.65
56568;BME280;42456;49.956;20.004;2023-05-01T04:03:55;98773.50;;;0.55;79.79
56568;BME280;42456;49.956;20.004;2023-05-01T04:06:22;98771.17;;;0.63;79.49
56568;BME280;42456;49.956;20.004;2023-05-01T04:08:49;98770.70;;;0.74;79.63
56568;BME280;42456;49.956;20.004;2023-05-01T04:11:16;98771.17;;;0.88;79.69
56568;BME280;42456;49.956;20.004;2023-05-01T04:13:43;98772.14;;;1.05;79.69
56568;BME280;42456;49.956;20.004;2023-05-01T04:16:10;98770.56;;;1.26;79.76
56568;BME280;42456;49.956;20.004;2023-05-01T04:18:36;98772.19;;;1.50;80.33
56568;BME280;42456;49.956;20.004;2023-05-01T04:21:03;98774.84;;;1.78;79.95
56568;BME280;42456;49.956;20.004;2023-05-01T04:23:30;98773.24;;;2.07;79.75
56568;BME280;42456;49.956;20.004;2023-05-01T04:25:57;98772.57;;;2.35;78.71
56568;BME280;42456;49.956;20.004;2023-05-01T04:28:24;98768.60;;;2.65;78.98
56568;BME280;42456;49.956;20.004;2023-05-01T04:30:52;98767.10;;;2.95;78.31
56568;BME280;42456;49.956;20.004;2023-05-01T04:33:19;98768.01;;;3.27;77.95
56568;BME280;42456;49.956;20.004;2023-05-01T04:35:45;98763.03;;;3.57;77.62
56568;BME280;42456;49.956;20.004;2023-05-01T04:38:12;98763.33;;;3.88;77.02
56568;BME280;42456;49.956;20.004;2023-05-01T04:40:39;98762.90;;;4.19;76.44
56568;BME280;42456;49.956;20.004;2023-05-01T04:43:06;98759.56;;;4.50;75.94
56568;BME280;42456;49.956;20.004;2023-05-01T04:45:33;98761.88;;;4.80;75.45
56568;BME280;42456;49.956;20.004;2023-05-01T04:48:00;98762.01;;;5.14;75.07
56568;BME280;42456;49.956;20.004;2023-05-01T04:50:27;98763.36;;;5.47;75.08
56568;BME280;42456;49.956;20.004;2023-05-01T04:52:54;98763.31;;;5.81;74.59
56568;BME280;42456;49.956;20.004;2023-05-01T04:55:21;98765.89;;;6.14;73.53
56568;BME280;42456;49.956;20.004;2023-05-01T04:57:48;98763.36;;;6.52;73.33
56568;BME280;42456;49.956;20.004;2023-05-01T05:00:15;98761.70;;;6.90;72.96
56568;BME280;42456;49.956;20.004;2023-05-01T05:02:45;98756.33;;;7.28;72.35
56568;BME280;42456;49.956;20.004;2023-05-01T05:05:12;98757.96;;;7.66;71.75
56568;BME280;42456;49.956;20.004;2023-05-01T05:07:40;98755.64;;;8.05;71.39
56568;BME280;42456;49.956;20.004;2023-05-01T05:10:07;98755.77;;;8.45;70.42
56568;BME280;42456;49.956;20.004;2023-05-01T05:12:34;98750.53;;;8.78;69.52
56568;BME280;42456;49.956;20.004;2023-05-01T05:15:01;98753.27;;;9.06;68.38
56568;BME280;42456;49.956;20.004;2023-05-01T05:17:27;98753.75;;;9.35;67.61
56568;BME280;42456;49.956;20.004;2023-05-01T05:19:54;98755.29;;;9.63;66.38
56568;BME280;42456;49.956;20.004;2023-05-01T05:22:22;98756.04;;;9.92;65.69
56568;BME280;42456;49.956;20.004;2023-05-01T05:24:53;98758.80;;;10.21;65.17
56568;BME280;42456;49.956;20.004;2023-05-01T05:27:29;98759.39;;;10.65;65.13
56568;BME280;42456;49.956;20.004;2023-05-01T05:30:06;98751.45;;;11.08;64.78
56568;BME280;42456;49.956;20.004;2023-05-01T05:32:33;98751.77;;;11.45;63.59
56568;BME280;42456;49.956;20.004;2023-05-01T05:35:00;98756.98;;;11.77;62.95
56568;BME280;42456;49.956;20.004;2023-05-01T05:37:27;98758.50;;;12.09;62.31
56568;BME280;42456;49.956;20.004;2023-05-01T05:39:54;98755.22;;;12.32;61.34
56568;BME280;42456;49.956;20.004;2023-05-01T05:42:21;98754.15;;;12.52;60.68
56568;BME280;42456;49.956;20.004;2023-05-01T05:44:48;98754.39;;;12.71;59.55
56568;BME280;42456;49.956;20.004;2023-05-01T05:47:15;98756.96;;;12.91;58.50
56568;BME280;42456;49.956;20.004;2023-05-01T05:49:42;98758.75;;;13.21;57.81
56568;BME280;42456;49.956;20.004;2023-05-01T05:52:09;98761.39;;;13.87;57.56
56568;BME280;42456;49.956;20.004;2023-05-01T05:54:36;98766.17;;;14.90;54.47
56568;BME280;42456;49.956;20.004;2023-05-01T05:57:03;98759.40;;;16.35;53.08
56568;BME280;42456;49.956;20.004;2023-05-01T05:59:30;98763.33;;;18.38;51.49
56568;BME280;42456;49.956;20.004;2023-05-01T06:01:57;98760.03;;;20.31;49.80
56568;BME280;42456;49.956;20.004;2023-05-01T06:04:24;98764.70;;;22.09;47.09
56568;BME280;42456;49.956;20.004;2023-05-01T06:06:53;98763.36;;;23.19;45.14
56568;BME280;42456;49.956;20.004;2023-05-01T06:09:38;98761.72;;;22.73;41.72
56568;BME280;42456;49.956;20.004;2023-05-01T06:12:27;98755.77;;;21.56;40.37
56568;BME280;42456;49.956;20.004;2023-05-01T06:15:15;98757.79;;;20.18;39.10
56568;BME280;42456;49.956;20.004;2023-05-01T06:17:42;98758.89;;;19.12;38.90
56568;BME280;42456;49.956;20.004;2023-05-01T06:20:10;98759.48;;;18.18;39.28
56568;BME280;42456;49.956;20.004;2023-05-01T06:22:37;98764.82;;;17.38;39.00
56568;BME280;42456;49.956;20.004;2023-05-01T06:25:04;98759.13;;;16.70;39.54
56568;BME280;42456;49.956;20.004;2023-05-01T06:27:32;98759.67;;;16.16;39.80
56568;BME280;42456;49.956;20.004;2023-05-01T06:29:59;98755.80;;;15.74;39.75
56568;BME280;42456;49.956;20.004;2023-05-01T06:32:26;98760.44;;;15.38;39.99
56568;BME280;42456;49.956;20.004;2023-05-01T06:34:53;98763.66;;;15.04;40.16
56568;BME280;42456;49.956;20.004;2023-05-01T06:37:20;98760.67;;;14.79;40.49
56568;BME280;42456;49.956;20.004;2023-05-01T06:39:47;98760.86;;;14.58;41.36
56568;BME280;42456;49.956;20.004;2023-05-01T06:42:14;98758.48;;;14.46;42.18
56568;BME280;42456;49.956;20.004;2023-05-01T06:44:42;98761.04;;;14.41;42.06
56568;BME280;42456;49.956;20.004;2023-05-01T06:47:09;98760.73;;;14.44;42.85
56568;BME280;42456;49.956;20.004;2023-05-01T06:49:37;98761.30;;;14.55;42.99
56568;BME280;42456;49.956;20.004;2023-05-01T06:52:04;98761.85;;;14.63;42.96
56568;BME280;42456;49.956;20.004;2023-05-01T06:54:30;98757.15;;;14.69;42.42
56568;BME280;42456;49.956;20.004;2023-05-01T06:56:57;98755.96;;;14.77;42.47
56568;BME280;42456;49.956;20.004;2023-05-01T06:59:24;98754.51;;;14.90;43.05
56568;BME280;42456;49.956;20.004;2023-05-01T07:01:51;98753.73;;;15.04;42.86
56568;BME280;42456;49.956;20.004;2023-05-01T07:04:19;98757.90;;;15.15;42.49
56568;BME280;42456;49.956;20.004;2023-05-01T07:06:46;98756.27;;;15.21;41.82
56568;BME280;42456;49.956;20.004;2023-05-01T07:09:13;98754.73;;;15.21;41.04
56568;BME280;42456;49.956;20.004;2023-05-01T07:11:41;98756.45;;;15.24;41.34
56568;BME280;42456;49.956;20.004;2023-05-01T07:14:08;98764.57;;;15.21;40.83
56568;BME280;42456;49.956;20.004;2023-05-01T07:16:35;98756.45;;;15.10;39.89
56568;BME280;42456;49.956;20.004;2023-05-01T07:19:02;98754.18;;;15.03;40.41
56568;BME280;42456;49.956;20.004;2023-05-01T07:21:29;98761.21;;;15.03;39.94
56568;BME280;42456;49.956;20.004;2023-05-01T07:23:58;98758.52;;;14.98;39.49
56568;BME280;42456;49.956;20.004;2023-05-01T07:26:25;98755.91;;;14.96;39.74
56568;BME280;42456;49.956;20.004;2023-05-01T07:28:53;98757.21;;;15.01;39.76
56568;BME280;42456;49.956;20.004;2023-05-01T07:31:20;98761.94;;;14.95;38.67
56568;BME280;42456;49.956;20.004;2023-05-01T07:33:48;98758.63;;;14.82;38.32
56568;BME280;42456;49.956;20.004;2023-05-01T07:36:16;98760.13;;;14.73;38.95
56568;BME280;42456;49.956;20.004;2023-05-01T07:38:46;98752.39;;;14.68;38.65
56568;BME280;42456;49.956;20.004;2023-05-01T07:41:13;98748.13;;;14.70;39.40
56568;BME280;42456;49.956;20.004;2023-05-01T07:43:40;98749.44;;;14.78;39.84
56568;BME280;42456;49.956;20.004;2023-05-01T07:46:07;98757.39;;;14.88;39.88
56568;BME280;42456;49.956;20.004;2023-05-01T07:48:48;98757.13;;;14.90;39.56
56568;BME280;42456;49.956;20.004;2023-05-01T07:54:40;98755.73;;;14.76;38.99
56568;BME280;42456;49.956;20.004;2023-05-01T08:01:04;98749.59;;;14.67;39.08
56568;BME280;42456;49.956;20.004;2023-05-01T08:03:33;98746.96;;;14.64;39.90
56568;BME280;42456;49.956;20.004;2023-05-01T08:06:07;98755.75;;;14.61;39.36
56568;BME280;42456;49.956;20.004;2023-05-01T08:08:48;98750.73;;;14.55;39.47
56568;BME280;42456;49.956;20.004;2023-05-01T08:11:15;98752.68;;;14.56;40.01
56568;BME280;42456;49.956;20.004;2023-05-01T08:13:42;98749.04;;;14.51;39.53
56568;BME280;42456;49.956;20.004;2023-05-01T08:16:09;98753.71;;;14.49;40.47
56568;BME280;42456;49.956;20.004;2023-05-01T08:18:36;98754.55;;;14.46;39.63
56568;BME280;42456;49.956;20.004;2023-05-01T08:21:03;98754.36;;;14.43;40.12
56568;BME280;42456;49.956;20.004;2023-05-01T08:23:30;98751.00;;;14.44;40.91
56568;BME280;42456;49.956;20.004;2023-05-01T08:25:57;98752.25;;;14.45;40.73
56568;BME280;42456;49.956;20.004;2023-05-01T08:28:24;98750.08;;;14.44;41.33
56568;BME280;42456;49.956;20.004;2023-05-01T08:30:51;98749.52;;;14.51;42.36
56568;BME280;42456;49.956;20.004;2023-05-01T08:33:18;98754.55;;;14.61;42.11
56568;BME280;42456;49.956;20.004;2023-05-01T08:35:45;98750.54;;;14.65;41.64
56568;BME280;42456;49.956;20.004;2023-05-01T08:38:11;98748.98;;;14.67;42.42
56568;BME280;42456;49.956;20.004;2023-05-01T08:40:40;98744.52;;;14.70;42.12
56568;BME280;42456;49.956;20.004;2023-05-01T08:43:10;98747.03;;;14.80;42.68
56568;BME280;42456;49.956;20.004;2023-05-01T08:45:39;98744.38;;;14.85;42.16
56568;BME280;42456;49.956;20.004;2023-05-01T08:48:08;98741.16;;;14.83;42.38
56568;BME280;42456;49.956;20.004;2023-05-01T08:50:37;98741.49;;;14.76;41.67
56568;BME280;42456;49.956;20.004;2023-05-01T08:53:05;98736.03;;;14.66;41.05
56568;BME280;42456;49.956;20.004;2023-05-01T08:55:34;98735.48;;;14.63;41.42
56568;BME280;42456;49.956;20.004;2023-05-01T08:58:02;98736.64;;;14.63;41.12
56568;BME280;42456;49.956;20.004;2023-05-01T09:00:31;98738.30;;;14.62;40.54
56568;BME280;42456;49.956;20.004;2023-05-01T09:03:00;98732.17;;;14.64;41.17
56568;BME280;42456;49.956;20.004;2023-05-01T09:05:32;98732.92;;;14.68;41.85
56568;BME280;42456;49.956;20.004;2023-05-01T09:07:59;98736.11;;;14.72;41.48
56568;BME280;42456;49.956;20.004;2023-05-01T09:10:27;98729.50;;;14.73;40.73
56568;BME280;42456;49.956;20.004;2023-05-01T09:13:03;98728.79;;;14.78;40.92
56568;BME280;42456;49.956;20.004;2023-05-01T09:15:37;98731.02;;;14.80;40.56
56568;BME280;42456;49.956;20.004;2023-05-01T09:18:04;98722.16;;;14.79;39.90
56568;BME280;42456;49.956;20.004;2023-05-01T09:20:32;98719.94;;;14.77;39.55
56568;BME280;42456;49.956;20.004;2023-05-01T09:23:02;98717.83;;;14.74;39.57
56568;BME280;42456;49.956;20.004;2023-05-01T09:25:29;98718.56;;;14.72;39.43
56568;BME280;42456;49.956;20.004;2023-05-01T09:27:57;98713.02;;;14.68;39.68
56568;BME280;42456;49.956;20.004;2023-05-01T09:30:31;98704.88;;;14.67;39.85
56568;BME280;42456;49.956;20.004;2023-05-01T09:33:13;98706.48;;;14.72;39.95
56568;BME280;42456;49.956;20.004;2023-05-01T09:35:58;98701.34;;;14.73;39.99
56568;BME280;42456;49.956;20.004;2023-05-01T09:39:21;98701.98;;;14.71;39.36
56568;BME280;42456;49.956;20.004;2023-05-01T09:41:50;98703.29;;;14.68;39.17
56568;BME280;42456;49.956;20.004;2023-05-01T09:44:21;98694.45;;;14.65;39.09
56568;BME280;42456;49.956;20.004;2023-05-01T09:46:48;98699.23;;;14.67;39.65
56568;BME280;42456;49.956;20.004;2023-05-01T09:49:15;98694.52;;;14.70;40.44
56568;BME280;42456;49.956;20.004;2023-05-01T09:51:43;98694.41;;;14.72;39.91
56568;BME280;42456;49.956;20.004;2023-05-01T09:54:45;98689.55;;;14.72;39.19
56568;BME280;42456;49.956;20.004;2023-05-01T09:57:35;98684.02;;;14.71;39.79
56568;BME280;42456;49.956;20.004;2023-05-01T10:00:06;98674.02;;;14.76;39.82
56568;BME280;42456;49.956;20.004;2023-05-01T10:02:54;98678.81;;;14.81;39.49
56568;BME280;42456;49.956;20.004;2023-05-01T10:06:26;98672.30;;;14.80;39.67
56568;BME280;42456;49.956;20.004;2023-05-01T10:17:29;98663.98;;;14.79;39.26
56568;BME280;42456;49.956;20.004;2023-05-01T10:23:46;98659.05;;;14.74;37.66
56568;BME280;42456;49.956;20.004;2023-05-01T10:27:48;98646.53;;;14.71;38.53
56568;BME280;42456;49.956;20.004;2023-05-01T10:31:19;98645.84;;;14.74;38.43
56568;BME280;42456;49.956;20.004;2023-05-01T10:33:58;98646.48;;;14.75;38.02
56568;BME280;42456;49.956;20.004;2023-05-01T10:36:36;98642.55;;;14.79;38.34
56568;BME280;42456;49.956;20.004;2023-05-01T10:39:05;98638.20;;;14.84;38.84
56568;BME280;42456;49.956;20.004;2023-05-01T10:55:38;98627.30;;;15.11;38.60
56568;BME280;42456;49.956;20.004;2023-05-01T10:58:05;98632.02;;;15.18;38.67
56568;BME280;42456;49.956;20.004;2023-05-01T11:00:32;98627.14;;;15.21;37.82
56568;BME280;42456;49.956;20.004;2023-05-01T11:08:37;98610.92;;;15.32;38.55
56568;BME280;42456;49.956;20.004;2023-05-01T11:13:59;98608.22;;;15.40;36.88
56568;BME280;42456;49.956;20.004;2023-05-01T11:19:08;98607.34;;;15.49;37.48
56568;BME280;42456;49.956;20.004;2023-05-01T11:21:36;98601.83;;;15.52;36.71
56568;BME280;42456;49.956;20.004;2023-05-01T11:24:05;98596.63;;;15.55;37.00
56568;BME280;42456;49.956;20.004;2023-05-01T11:26:36;98592.52;;;15.59;37.09
56568;BME280;42456;49.956;20.004;2023-05-01T11:29:04;98581.74;;;15.61;37.04
56568;BME280;42456;49.956;20.004;2023-05-01T11:31:32;98587.58;;;15.66;36.49
56568;BME280;42456;49.956;20.004;2023-05-01T11:33:59;98588.02;;;15.68;36.72
56568;BME280;42456;49.956;20.004;2023-05-01T11:36:27;98581.28;;;15.72;37.12
56568;BME280;42456;49.956;20.004;2023-05-01T11:38:58;98574.02;;;15.77;36.87
56568;BME280;42456;49.956;20.004;2023-05-01T11:41:26;98575.70;;;15.82;37.68
56568;BME280;42456;49.956;20.004;2023-05-01T11:43:56;98577.13;;;15.88;38.20
56568;BME280;42456;49.956;20.004;2023-05-01T11:46:26;98571.92;;;15.91;38.09
56568;BME280;42456;49.956;20.004;2023-05-01T11:48:58;98568.30;;;15.95;38.01
56568;BME280;42456;49.956;20.004;2023-05-01T11:51:26;98571.19;;;16.00;37.69
56568;BME280;42456;49.956;20.004;2023-05-01T11:54:04;98568.11;;;16.05;37.96
56568;BME280;42456;49.956;20.004;2023-05-01T11:56:32;98567.59;;;16.09;38.33
56568;BME280;42456;49.956;20.004;2023-05-01T11:59:11;98561.11;;;16.12;38.44
56568;BME280;42456;49.956;20.004;2023-05-01T12:01:39;98560.84;;;16.17;38.57
56568;BME280;42456;49.956;20.004;2023-05-01T12:04:07;98561.27;;;16.23;38.80
56568;BME280;42456;49.956;20.004;2023-05-01T12:06:40;98560.66;;;16.24;38.09
56568;BME280;42456;49.956;20.004;2023-05-01T12:09:25;98552.13;;;16.24;38.55
56568;BME280;42456;49.956;20.004;2023-05-01T12:11:52;98544.04;;;16.26;37.96
56568;BME280;42456;49.956;20.004;2023-05-01T12:14:20;98539.10;;;16.28;38.09
56568;BME280;42456;49.956;20.004;2023-05-01T12:16:47;98543.41;;;16.30;37.85
56568;BME280;42456;49.956;20.004;2023-05-01T12:19:15;98543.65;;;16.30;37.92
56568;BME280;42456;49.956;20.004;2023-05-01T12:21:43;98533.54;;;16.32;37.88
56568;BME280;42456;49.956;20.004;2023-05-01T12:24:15;98531.45;;;16.37;37.60
56568;BME280;42456;49.956;20.004;2023-05-01T12:26:45;98529.70;;;16.43;38.31
56568;BME280;42456;49.956;20.004;2023-05-01T12:29:12;98528.87;;;16.46;36.52
56568;BME280;42456;49.956;20.004;2023-05-01T12:31:47;98523.55;;;16.49;36.85
56568;BME280;42456;49.956;20.004;2023-05-01T12:34:14;98512.75;;;16.52;36.60
56568;BME280;42456;49.956;20.004;2023-05-01T12:36:51;98520.42;;;16.56;37.42
56568;BME280;42456;49.956;20.004;2023-05-01T12:39:19;98514.52;;;16.56;36.82
56568;BME280;42456;49.956;20.004;2023-05-01T12:41:50;98511.35;;;16.56;38.30
56568;BME280;42456;49.956;20.004;2023-05-01T13:49:15;98439.44;;;16.96;35.64
56568;BME280;42456;49.956;20.004;2023-05-01T16:34:36;98305.65;;;16.64;39.16
56568;BME280;42456;49.956;20.004;2023-05-01T22:01:49;98310.60;;;8.00;65.69
56568;BME280;42456;49.956;20.004;2023-05-01T22:33:48;98321.20;;;7.49;67.43
56568;BME280;42456;49.956;20.004;2023-05-01T22:46:27;98330.35;;;7.30;68.25
